Portglenone, United Kingdom
Current Conditions -  °F | °C
As of 4:50 PM on Tuesday 27 Jan 2015 (Local Time) from EGAA Reporting Station
Broken Clouds Broken Clouds  
Wind Chill: 37°   Ceiling: 1900
Heat Index: 43°   Visibility: 6mi
Dew Point: 41°   Wind: 10mph
Humidity: 93%   Direction: 230°SW
Pressure: 30.09"   Gusts: NA
Location:  54.87°N, 6.47°W
Report Text: EGAA 271650Z 23009KT 9999 BKN019 BKN024 06/05 Q1019
Loading
Personal Weather Stations






























Interactive Weather Map New forecast layout! Learn more

10-Day Weather Forecast

Advertisements
Track Severe Weather on mobile